createdAt,value
2023-03-02T00:02:07.657Z,0
2023-03-02T00:07:26.802Z,0
2023-03-02T00:12:46.424Z,0
2023-03-02T00:18:14.820Z,0
2023-03-02T00:23:25.329Z,0
2023-03-02T00:28:44.880Z,0
2023-03-02T00:34:04.477Z,0
2023-03-02T00:39:23.665Z,0
2023-03-02T00:44:42.965Z,0
2023-03-02T00:50:01.856Z,0
2023-03-02T00:55:20.728Z,0
2023-03-02T01:00:39.192Z,0
2023-03-02T01:11:18.037Z,0
2023-03-02T01:16:37.339Z,0
2023-03-02T01:21:56.543Z,0
2023-03-02T01:27:15.646Z,0
2023-03-02T01:32:34.786Z,0
2023-03-02T01:37:53.877Z,0
2023-03-02T01:43:13.574Z,0
2023-03-02T01:53:53.180Z,0
2023-03-02T01:59:10.958Z,0
2023-03-02T02:09:50.090Z,0
2023-03-02T02:15:09.903Z,0
2023-03-02T02:25:47.931Z,0
2023-03-02T02:31:07.237Z,0
2023-03-02T02:36:26.318Z,0
2023-03-02T02:41:46.082Z,0
2023-03-02T02:52:24.916Z,0
2023-03-02T02:57:44.391Z,0
2023-03-02T03:03:03.957Z,0
2023-03-02T03:08:23.268Z,0
2023-03-02T03:13:42.194Z,0
2023-03-02T03:19:01.397Z,0
2023-03-02T03:29:39.487Z,0
2023-03-02T03:34:58.376Z,0
2023-03-02T03:40:17.737Z,0
2023-03-02T03:45:36.828Z,0
2023-03-02T03:50:55.716Z,0
2023-03-02T03:56:15.142Z,0
2023-03-02T04:01:34.286Z,0
2023-03-02T04:12:12.488Z,0
2023-03-02T04:17:31.354Z,0
2023-03-02T04:22:50.894Z,0
2023-03-02T04:28:10.750Z,0
2023-03-02T04:33:30.506Z,0
2023-03-02T04:38:50.041Z,0
2023-03-02T04:44:09.868Z,0
2023-03-02T04:54:47.702Z,0
2023-03-02T05:00:06.912Z,0
2023-03-02T05:05:26.201Z,0
2023-03-02T05:10:45.143Z,0
2023-03-02T05:16:05.026Z,0
2023-03-02T05:26:43.608Z,0
2023-03-02T05:37:22.369Z,0
2023-03-02T05:37:47.219Z,0
2023-03-02T05:43:06.906Z,0
2023-03-02T05:48:26.688Z,0.0018
2023-03-02T05:53:46.165Z,0.0102
2023-03-02T05:59:05.590Z,0.0215
2023-03-02T06:09:44.968Z,0.0313
2023-03-02T06:15:04.094Z,0.0361
2023-03-02T06:20:23.218Z,0.0419
2023-03-02T06:25:42.702Z,0.0471
2023-03-02T06:31:01.701Z,0.0467
2023-03-02T06:36:20.625Z,0.0458
2023-03-02T06:41:39.605Z,0.0516
2023-03-02T06:52:18.282Z,0.0608
2023-03-02T06:57:38.037Z,0.0623
2023-03-02T07:02:58.051Z,0.0684
2023-03-02T07:08:17.690Z,0.0687
2023-03-02T07:13:36.942Z,0.0691
2023-03-02T07:18:56.067Z,0.0704
2023-03-02T07:24:15.015Z,0.0757
2023-03-02T07:34:53.641Z,0.0792
2023-03-02T07:40:12.669Z,0.0833
2023-03-02T07:45:31.981Z,0.088
2023-03-02T07:50:51.414Z,0.0946
2023-03-02T07:56:10.580Z,0.0969
2023-03-02T08:01:29.403Z,0.1128
2023-03-02T08:06:48.150Z,0.1215
2023-03-02T08:17:25.885Z,0.1382
2023-03-02T08:22:45.149Z,0.1368
2023-03-02T08:33:23.237Z,0.3206
2023-03-02T08:38:42.001Z,0.4794
2023-03-02T08:44:01.212Z,0.5186
2023-03-02T08:49:20.942Z,0.5514
2023-03-02T08:59:59.455Z,0.6126
2023-03-02T09:05:18.692Z,0.6666
2023-03-02T09:10:37.500Z,0.7524
2023-03-02T09:15:57.209Z,0.8309
2023-03-02T09:21:16.000Z,0.874
2023-03-02T09:26:34.826Z,0.5665
2023-03-02T09:31:53.890Z,0.8861
2023-03-02T09:37:12.632Z,1.0246
2023-03-02T09:42:41.981Z,1.0551
2023-03-02T09:47:50.447Z,1.4541
2023-03-02T09:53:10.089Z,1.3253
2023-03-02T09:58:29.019Z,1.4008
2023-03-02T10:03:48.552Z,1.3134
2023-03-02T10:09:07.303Z,1.3328
2023-03-02T10:14:26.128Z,1.4287
2023-03-02T10:19:46.264Z,1.3295
2023-03-02T10:25:04.906Z,1.568
2023-03-02T10:35:43.004Z,1.5021
2023-03-02T10:41:02.158Z,1.3702
2023-03-02T10:46:21.766Z,1.5195
2023-03-02T10:51:40.799Z,1.4602
2023-03-02T10:56:59.953Z,1.7423
2023-03-02T11:02:19.348Z,1.6145
2023-03-02T11:07:38.580Z,2.0699
2023-03-02T11:18:17.097Z,1.9643
2023-03-02T11:23:36.609Z,1.6345
2023-03-02T11:28:55.924Z,1.8968
2023-03-02T11:34:17.815Z,1.9645
2023-03-02T11:39:35.117Z,1.9246
2023-03-02T11:44:53.285Z,1.7914
2023-03-02T11:50:11.986Z,1.5505
2023-03-02T12:00:50.515Z,1.9016
2023-03-02T12:06:09.697Z,1.7081
2023-03-02T12:11:29.109Z,1.6142
2023-03-02T12:16:48.588Z,1.5466
2023-03-02T12:22:07.445Z,1.5409
2023-03-02T12:27:26.787Z,1.5499
2023-03-02T12:38:06.494Z,1.6355
2023-03-02T12:43:25.983Z,1.7101
2023-03-02T12:48:46.131Z,1.6347
2023-03-02T12:59:24.691Z,1.2402
2023-03-02T13:04:44.217Z,1.2947
2023-03-02T13:10:03.076Z,1.2635
2023-03-02T13:15:21.737Z,1.2682
2023-03-02T13:20:40.683Z,1.0957
2023-03-02T13:25:59.845Z,1.1038
2023-03-02T13:31:19.585Z,0.9658
2023-03-02T13:41:56.834Z,0.8627
2023-03-02T13:47:16.478Z,0.843
2023-03-02T13:52:36.112Z,0.7009
2023-03-02T13:57:55.454Z,0.6888
2023-03-02T14:03:14.561Z,0.6353
2023-03-02T14:08:34.250Z,0.6063
2023-03-02T14:13:53.482Z,0.5679
2023-03-02T14:24:31.812Z,0.4752
2023-03-02T14:29:50.786Z,0.3979
2023-03-02T14:35:10.241Z,0.3885
2023-03-02T14:40:29.019Z,0.3747
2023-03-02T14:45:47.845Z,0.2999
2023-03-02T14:51:06.861Z,0.296
2023-03-02T14:56:26.098Z,0.2816
2023-03-02T15:07:04.137Z,0.2034
2023-03-02T15:12:23.071Z,0.1769
2023-03-02T15:17:41.804Z,0.1646
2023-03-02T15:23:01.614Z,0.14
2023-03-02T15:28:20.308Z,0.1281
2023-03-02T15:33:39.222Z,0.1077
2023-03-02T15:38:58.407Z,0.1034
2023-03-02T15:44:17.368Z,0.0884
2023-03-02T15:49:36.279Z,0.0786
2023-03-02T15:54:55.019Z,0.0691
2023-03-02T16:00:14.572Z,0.0898
2023-03-02T16:05:34.079Z,0.097
2023-03-02T16:10:53.679Z,0.082
2023-03-02T16:16:13.157Z,0.0752
2023-03-02T16:21:32.469Z,0.0719
2023-03-02T16:26:51.268Z,0.0623
2023-03-02T16:32:10.309Z,0.0542
2023-03-02T16:37:29.617Z,0.0484
2023-03-02T16:42:48.426Z,0.0466
2023-03-02T16:48:07.735Z,0.0436
2023-03-02T16:53:27.277Z,0.0367
2023-03-02T16:58:46.516Z,0.0372
2023-03-02T17:04:06.201Z,0.0306
2023-03-02T17:09:25.200Z,0.0233
2023-03-02T17:14:44.455Z,0.0102
2023-03-02T17:25:21.787Z,0
2023-03-02T17:30:41.497Z,0
2023-03-02T17:41:20.416Z,0
2023-03-02T17:46:40.061Z,0
2023-03-02T17:51:58.950Z,0
2023-03-02T17:57:18.348Z,0
2023-03-02T18:02:37.265Z,0
2023-03-02T18:07:56.411Z,0
2023-03-02T18:13:15.554Z,0
2023-03-02T18:23:53.655Z,0
2023-03-02T18:29:13.181Z,0
2023-03-02T18:34:32.359Z,0
2023-03-02T18:39:51.167Z,0
2023-03-02T18:45:10.413Z,0
2023-03-02T18:50:30.055Z,0
2023-03-02T18:55:49.174Z,0
2023-03-02T19:06:27.400Z,0
2023-03-02T19:11:46.883Z,0
2023-03-02T19:17:05.880Z,0
2023-03-02T19:22:25.003Z,0
2023-03-02T19:27:44.678Z,0
2023-03-02T19:33:03.515Z,0
2023-03-02T19:38:23.201Z,0
2023-03-02T19:49:01.286Z,0
2023-03-02T19:54:20.630Z,0
2023-03-02T19:59:39.586Z,0
2023-03-02T20:04:59.198Z,0
2023-03-02T20:10:18.881Z,0
2023-03-02T20:15:37.703Z,0
2023-03-02T20:20:57.292Z,0
2023-03-02T20:31:36.052Z,0
2023-03-02T20:36:55.607Z,0
2023-03-02T20:47:33.825Z,0
2023-03-02T20:58:12.137Z,0
2023-03-02T21:03:31.479Z,0
2023-03-02T21:14:09.760Z,0
2023-03-02T21:19:28.753Z,0
2023-03-02T21:24:48.294Z,0
2023-03-02T21:30:07.899Z,0
2023-03-02T21:35:26.979Z,0
2023-03-02T21:40:45.915Z,0
2023-03-02T21:46:04.982Z,0
2023-03-02T21:51:24.072Z,0
2023-03-02T21:56:43.419Z,0
2023-03-02T22:02:02.575Z,0
2023-03-02T22:12:40.453Z,0
2023-03-02T22:17:59.437Z,0
2023-03-02T22:23:19.685Z,0
2023-03-02T22:28:39.291Z,0
2023-03-02T22:33:58.772Z,0
2023-03-02T22:39:17.853Z,0
2023-03-02T22:44:36.976Z,0
2023-03-02T22:55:15.833Z,0
2023-03-02T23:05:54.759Z,0
2023-03-02T23:11:13.486Z,0
2023-03-02T23:16:32.552Z,0
2023-03-02T23:21:51.671Z,0
2023-03-02T23:38:16.280Z,0
2023-03-02T23:48:54.386Z,0
2023-03-02T23:54:13.973Z,0
